sensor_id;sensor_type;location;lat;lon;timestamp;temperature;humidity
40816;DHT22;26535;48.788;9.214;2024-03-23T06:01:25;10.20;99.90
40816;DHT22;26535;48.788;9.214;2024-03-23T06:04:00;10.10;99.90
40816;DHT22;26535;48.788;9.214;2024-03-23T06:06:27;9.90;99.90
40816;DHT22;26535;48.788;9.214;2024-03-23T06:09:18;9.80;99.90
40816;DHT22;26535;48.788;9.214;2024-03-23T06:11:45;9.80;99.90
40816;DHT22;26535;48.788;9.214;2024-03-23T06:14:32;9.80;99.90
40816;DHT22;26535;48.788;9.214;2024-03-23T06:17:01;9.80;99.90
40816;DHT22;26535;48.788;9.214;2024-03-23T06:19:27;9.80;99.90
40816;DHT22;26535;48.788;9.214;2024-03-23T06:22:02;9.80;99.90
40816;DHT22;26535;48.788;9.214;2024-03-23T06:27:31;9.90;99.90
40816;DHT22;26535;48.788;9.214;2024-03-23T06:30:00;9.80;99.90
40816;DHT22;26535;48.788;9.214;2024-03-23T06:32:27;9.80;99.90
40816;DHT22;26535;48.788;9.214;2024-03-23T06:35:06;9.80;99.90
40816;DHT22;26535;48.788;9.214;2024-03-23T06:38:01;9.90;99.90
40816;DHT22;26535;48.788;9.214;2024-03-23T06:40:27;9.90;99.90
40816;DHT22;26535;48.788;9.214;2024-03-23T06:42:55;9.90;99.90
40816;DHT22;26535;48.788;9.214;2024-03-23T06:45:21;10.00;99.90
40816;DHT22;26535;48.788;9.214;2024-03-23T06:48:07;10.00;99.90
40816;DHT22;26535;48.788;9.214;2024-03-23T06:50:59;10.00;99.90
40816;DHT22;26535;48.788;9.214;2024-03-23T06:53:30;10.00;99.90
40816;DHT22;26535;48.788;9.214;2024-03-23T06:55:59;10.00;99.90
40816;DHT22;26535;48.788;9.214;2024-03-23T06:58:41;10.00;99.90
40816;DHT22;26535;48.788;9.214;2024-03-23T07:01:16;10.00;99.90
40816;DHT22;26535;48.788;9.214;2024-03-23T07:03:48;10.00;99.90
40816;DHT22;26535;48.788;9.214;2024-03-23T07:06:14;9.90;99.90
40816;DHT22;26535;48.788;9.214;2024-03-23T07:08:49;10.10;99.90
40816;DHT22;26535;48.788;9.214;2024-03-23T07:11:19;10.10;99.90
40816;DHT22;26535;48.788;9.214;2024-03-23T07:13:52;10.10;99.60
40816;DHT22;26535;48.788;9.214;2024-03-23T07:16:30;10.00;99.70
40816;DHT22;26535;48.788;9.214;2024-03-23T07:18:56;10.10;99.60
40816;DHT22;26535;48.788;9.214;2024-03-23T07:24:15;10.00;99.40
40816;DHT22;26535;48.788;9.214;2024-03-23T07:26:53;10.10;98.90
40816;DHT22;26535;48.788;9.214;2024-03-23T07:29:30;10.00;99.20
40816;DHT22;26535;48.788;9.214;2024-03-23T07:31:55;10.20;99.10
40816;DHT22;26535;48.788;9.214;2024-03-23T07:34:21;10.50;98.60
40816;DHT22;26535;48.788;9.214;2024-03-23T07:36:52;10.70;97.80
40816;DHT22;26535;48.788;9.214;2024-03-23T07:39:44;10.90;97.20
40816;DHT22;26535;48.788;9.214;2024-03-23T07:42:20;10.70;97.70
40816;DHT22;26535;48.788;9.214;2024-03-23T07:44:51;10.70;97.80
40816;DHT22;26535;48.788;9.214;2024-03-23T07:47:17;10.50;97.80
40816;DHT22;26535;48.788;9.214;2024-03-23T07:49:43;10.20;98.30
40816;DHT22;26535;48.788;9.214;2024-03-23T07:52:08;10.10;98.70
40816;DHT22;26535;48.788;9.214;2024-03-23T07:54:38;10.10;99.80
40816;DHT22;26535;48.788;9.214;2024-03-23T07:57:03;9.80;99.90
40816;DHT22;26535;48.788;9.214;2024-03-23T07:59:30;9.40;99.90
40816;DHT22;26535;48.788;9.214;2024-03-23T08:01:57;9.10;99.90
40816;DHT22;26535;48.788;9.214;2024-03-23T08:04:23;8.80;99.90
40816;DHT22;26535;48.788;9.214;2024-03-23T08:06:58;8.70;99.90
40816;DHT22;26535;48.788;9.214;2024-03-23T08:09:23;8.60;99.90
40816;DHT22;26535;48.788;9.214;2024-03-23T08:11:52;8.60;99.90
40816;DHT22;26535;48.788;9.214;2024-03-23T08:14:38;8.60;99.90
40816;DHT22;26535;48.788;9.214;2024-03-23T08:17:51;8.50;99.90
40816;DHT22;26535;48.788;9.214;2024-03-23T08:20:20;8.50;99.90
40816;DHT22;26535;48.788;9.214;2024-03-23T08:23:32;8.50;99.90
40816;DHT22;26535;48.788;9.214;2024-03-23T08:27:15;8.70;99.90
40816;DHT22;26535;48.788;9.214;2024-03-23T08:38:04;9.20;99.90
40816;DHT22;26535;48.788;9.214;2024-03-23T08:44:50;8.70;99.90
40816;DHT22;26535;48.788;9.214;2024-03-23T08:51:27;8.30;99.90
40816;DHT22;26535;48.788;9.214;2024-03-23T08:55:02;8.40;99.90
40816;DHT22;26535;48.788;9.214;2024-03-23T08:58:41;8.60;99.90
40816;DHT22;26535;48.788;9.214;2024-03-23T09:01:10;8.70;99.90
40816;DHT22;26535;48.788;9.214;2024-03-23T09:03:36;8.60;99.90
40816;DHT22;26535;48.788;9.214;2024-03-23T09:06:14;8.50;99.90
40816;DHT22;26535;48.788;9.214;2024-03-23T09:12:26;8.40;99.90
40816;DHT22;26535;48.788;9.214;2024-03-23T09:15:02;8.50;99.90
40816;DHT22;26535;48.788;9.214;2024-03-23T09:18:03;8.50;99.90
40816;DHT22;26535;48.788;9.214;2024-03-23T09:20:48;8.60;99.90
40816;DHT22;26535;48.788;9.214;2024-03-23T09:23:35;8.70;99.90
40816;DHT22;26535;48.788;9.214;2024-03-23T09:26:07;8.90;99.90
40816;DHT22;26535;48.788;9.214;2024-03-23T09:28:37;9.10;99.80
40816;DHT22;26535;48.788;9.214;2024-03-23T09:31:07;9.20;98.70
40816;DHT22;26535;48.788;9.214;2024-03-23T09:33:56;9.30;98.50
40816;DHT22;26535;48.788;9.214;2024-03-23T09:36:24;9.40;98.10
40816;DHT22;26535;48.788;9.214;2024-03-23T09:38:59;9.50;97.50
40816;DHT22;26535;48.788;9.214;2024-03-23T09:42:21;9.90;97.00
40816;DHT22;26535;48.788;9.214;2024-03-23T09:48:15;10.80;94.40
40816;DHT22;26535;48.788;9.214;2024-03-23T09:50:45;11.10;93.40
40816;DHT22;26535;48.788;9.214;2024-03-23T09:53:12;11.10;93.60
40816;DHT22;26535;48.788;9.214;2024-03-23T09:55:43;11.10;92.80
40816;DHT22;26535;48.788;9.214;2024-03-23T09:58:13;11.10;93.30
40816;DHT22;26535;48.788;9.214;2024-03-23T10:00:43;11.00;93.10
40816;DHT22;26535;48.788;9.214;2024-03-23T10:03:09;11.20;93.30
40816;DHT22;26535;48.788;9.214;2024-03-23T10:05:37;11.50;92.60
40816;DHT22;26535;48.788;9.214;2024-03-23T10:10:41;11.60;81.20
40816;DHT22;26535;48.788;9.214;2024-03-23T10:13:07;11.40;81.50
40816;DHT22;26535;48.788;9.214;2024-03-23T10:15:39;11.40;82.10
40816;DHT22;26535;48.788;9.214;2024-03-23T10:18:26;11.40;82.50
40816;DHT22;26535;48.788;9.214;2024-03-23T10:23:35;11.70;78.30
40816;DHT22;26535;48.788;9.214;2024-03-23T10:26:20;11.70;79.70
40816;DHT22;26535;48.788;9.214;2024-03-23T10:29:00;11.60;78.90
40816;DHT22;26535;48.788;9.214;2024-03-23T10:31:37;11.70;78.60
40816;DHT22;26535;48.788;9.214;2024-03-23T10:34:08;11.70;79.90
40816;DHT22;26535;48.788;9.214;2024-03-23T10:36:34;11.90;79.80
40816;DHT22;26535;48.788;9.214;2024-03-23T10:39:05;11.90;80.00
40816;DHT22;26535;48.788;9.214;2024-03-23T10:41:39;11.70;79.60
40816;DHT22;26535;48.788;9.214;2024-03-23T10:44:06;11.80;79.50
40816;DHT22;26535;48.788;9.214;2024-03-23T10:46:32;11.60;79.20
40816;DHT22;26535;48.788;9.214;2024-03-23T10:48:58;11.60;79.30
40816;DHT22;26535;48.788;9.214;2024-03-23T10:51:24;11.10;79.20
40816;DHT22;26535;48.788;9.214;2024-03-23T10:53:53;11.00;80.70
40816;DHT22;26535;48.788;9.214;2024-03-23T10:56:26;10.60;86.90
40816;DHT22;26535;48.788;9.214;2024-03-23T10:59:05;10.30;89.00
40816;DHT22;26535;48.788;9.214;2024-03-23T11:02:18;9.40;93.50
40816;DHT22;26535;48.788;9.214;2024-03-23T11:04:40;8.50;96.60
40816;DHT22;26535;48.788;9.214;2024-03-23T11:09:50;7.30;99.90
40816;DHT22;26535;48.788;9.214;2024-03-23T11:14:53;6.40;99.90
40816;DHT22;26535;48.788;9.214;2024-03-23T11:17:21;6.20;99.90
40816;DHT22;26535;48.788;9.214;2024-03-23T11:20:05;6.40;99.90
40816;DHT22;26535;48.788;9.214;2024-03-23T11:25:26;6.90;99.90
40816;DHT22;26535;48.788;9.214;2024-03-23T11:27:54;6.90;99.90
40816;DHT22;26535;48.788;9.214;2024-03-23T11:30:23;7.00;99.90
40816;DHT22;26535;48.788;9.214;2024-03-23T11:32:51;7.30;99.90
40816;DHT22;26535;48.788;9.214;2024-03-23T11:35:26;7.80;99.90
40816;DHT22;26535;48.788;9.214;2024-03-23T11:38:14;8.10;99.90
40816;DHT22;26535;48.788;9.214;2024-03-23T11:40:42;8.60;99.90
40816;DHT22;26535;48.788;9.214;2024-03-23T11:43:16;8.90;99.90
40816;DHT22;26535;48.788;9.214;2024-03-23T11:45:49;9.10;99.90
40816;DHT22;26535;48.788;9.214;2024-03-23T11:48:23;9.40;99.90
40816;DHT22;26535;48.788;9.214;2024-03-23T11:50:55;10.40;99.90
40816;DHT22;26535;48.788;9.214;2024-03-23T11:53:22;11.30;99.90
40816;DHT22;26535;48.788;9.214;2024-03-23T11:55:59;11.50;99.90
40816;DHT22;26535;48.788;9.214;2024-03-23T11:58:26;11.60;99.90
40816;DHT22;26535;48.788;9.214;2024-03-23T12:03:23;11.20;99.90
40816;DHT22;26535;48.788;9.214;2024-03-23T12:06:02;11.30;96.10
40816;DHT22;26535;48.788;9.214;2024-03-23T12:08:37;11.00;96.70
40816;DHT22;26535;48.788;9.214;2024-03-23T12:11:11;10.50;95.60
40816;DHT22;26535;48.788;9.214;2024-03-23T12:13:37;10.10;96.20
40816;DHT22;26535;48.788;9.214;2024-03-23T12:16:13;9.90;95.90
40816;DHT22;26535;48.788;9.214;2024-03-23T12:18:41;9.90;93.80
40816;DHT22;26535;48.788;9.214;2024-03-23T12:21:07;10.00;92.60
40816;DHT22;26535;48.788;9.214;2024-03-23T12:23:34;10.20;92.20
40816;DHT22;26535;48.788;9.214;2024-03-23T12:26:03;10.30;90.40
40816;DHT22;26535;48.788;9.214;2024-03-23T12:28:29;10.60;91.40
40816;DHT22;26535;48.788;9.214;2024-03-23T12:30:55;10.90;85.60
40816;DHT22;26535;48.788;9.214;2024-03-23T12:33:21;11.00;84.10
40816;DHT22;26535;48.788;9.214;2024-03-23T12:35:48;12.00;82.80
40816;DHT22;26535;48.788;9.214;2024-03-23T12:38:14;12.70;78.90
40816;DHT22;26535;48.788;9.214;2024-03-23T12:40:39;12.70;79.60
40816;DHT22;26535;48.788;9.214;2024-03-23T12:43:07;13.60;78.90
40816;DHT22;26535;48.788;9.214;2024-03-23T12:45:33;13.80;74.10
40816;DHT22;26535;48.788;9.214;2024-03-23T12:47:59;13.80;74.30
40816;DHT22;26535;48.788;9.214;2024-03-23T12:50:25;13.10;74.80
40816;DHT22;26535;48.788;9.214;2024-03-23T12:52:54;12.30;76.10
40816;DHT22;26535;48.788;9.214;2024-03-23T12:55:19;11.90;78.30
40816;DHT22;26535;48.788;9.214;2024-03-23T12:57:48;11.50;78.90
40816;DHT22;26535;48.788;9.214;2024-03-23T13:00:14;11.20;79.50
40816;DHT22;26535;48.788;9.214;2024-03-23T13:02:42;11.10;80.00
40816;DHT22;26535;48.788;9.214;2024-03-23T13:05:11;11.60;80.70
40816;DHT22;26535;48.788;9.214;2024-03-23T13:07:36;13.00;77.90
40816;DHT22;26535;48.788;9.214;2024-03-23T13:10:05;15.00;71.50
40816;DHT22;26535;48.788;9.214;2024-03-23T13:12:36;16.00;67.40
40816;DHT22;26535;48.788;9.214;2024-03-23T13:15:03;17.40;64.80
40816;DHT22;26535;48.788;9.214;2024-03-23T13:17:31;17.10;63.50
40816;DHT22;26535;48.788;9.214;2024-03-23T13:20:15;16.50;64.80
40816;DHT22;26535;48.788;9.214;2024-03-23T13:22:48;16.40;66.30
40816;DHT22;26535;48.788;9.214;2024-03-23T13:25:13;17.40;64.20
40816;DHT22;26535;48.788;9.214;2024-03-23T13:27:39;17.50;64.00
40816;DHT22;26535;48.788;9.214;2024-03-23T13:30:14;17.30;63.00
40816;DHT22;26535;48.788;9.214;2024-03-23T13:32:40;17.00;62.50
40816;DHT22;26535;48.788;9.214;2024-03-23T13:35:10;16.70;63.40
40816;DHT22;26535;48.788;9.214;2024-03-23T13:37:48;16.20;64.90
40816;DHT22;26535;48.788;9.214;2024-03-23T13:40:14;15.70;63.50
40816;DHT22;26535;48.788;9.214;2024-03-23T13:43:00;15.00;63.30
40816;DHT22;26535;48.788;9.214;2024-03-23T13:45:29;14.70;64.00
40816;DHT22;26535;48.788;9.214;2024-03-23T13:47:55;15.90;61.60
40816;DHT22;26535;48.788;9.214;2024-03-23T13:50:21;17.30;58.30
40816;DHT22;26535;48.788;9.214;2024-03-23T13:52:47;18.40;56.90
40816;DHT22;26535;48.788;9.214;2024-03-23T13:55:13;19.10;54.10
40816;DHT22;26535;48.788;9.214;2024-03-23T13:57:41;19.70;53.60
40816;DHT22;26535;48.788;9.214;2024-03-23T14:00:08;19.90;53.50
40816;DHT22;26535;48.788;9.214;2024-03-23T14:02:38;20.20;52.40
40816;DHT22;26535;48.788;9.214;2024-03-23T14:05:07;19.60;53.00
40816;DHT22;26535;48.788;9.214;2024-03-23T14:07:57;18.60;54.50
40816;DHT22;26535;48.788;9.214;2024-03-23T14:10:23;16.00;62.30
40816;DHT22;26535;48.788;9.214;2024-03-23T14:12:52;13.80;71.60
40816;DHT22;26535;48.788;9.214;2024-03-23T14:15:20;11.70;89.10
40816;DHT22;26535;48.788;9.214;2024-03-23T14:17:52;9.90;94.10
40816;DHT22;26535;48.788;9.214;2024-03-23T14:20:18;8.40;99.30
40816;DHT22;26535;48.788;9.214;2024-03-23T14:22:50;7.00;99.90
40816;DHT22;26535;48.788;9.214;2024-03-23T14:25:16;6.00;99.90
40816;DHT22;26535;48.788;9.214;2024-03-23T14:27:54;5.60;99.90
40816;DHT22;26535;48.788;9.214;2024-03-23T14:33:56;5.60;99.90
40816;DHT22;26535;48.788;9.214;2024-03-23T14:36:22;7.00;99.90
40816;DHT22;26535;48.788;9.214;2024-03-23T14:38:48;8.50;99.90
40816;DHT22;26535;48.788;9.214;2024-03-23T14:41:14;9.40;99.90
40816;DHT22;26535;48.788;9.214;2024-03-23T14:43:40;10.80;99.90
40816;DHT22;26535;48.788;9.214;2024-03-23T14:46:16;11.80;99.90
40816;DHT22;26535;48.788;9.214;2024-03-23T14:48:45;11.80;99.90
40816;DHT22;26535;48.788;9.214;2024-03-23T14:51:22;12.20;99.90
40816;DHT22;26535;48.788;9.214;2024-03-23T14:53:47;12.50;99.90
40816;DHT22;26535;48.788;9.214;2024-03-23T14:56:13;11.80;99.90
40816;DHT22;26535;48.788;9.214;2024-03-23T14:58:59;11.00;99.90
40816;DHT22;26535;48.788;9.214;2024-03-23T15:01:25;10.10;99.90
40816;DHT22;26535;48.788;9.214;2024-03-23T15:03:55;9.00;99.90
40816;DHT22;26535;48.788;9.214;2024-03-23T15:06:24;8.30;99.90
40816;DHT22;26535;48.788;9.214;2024-03-23T15:08:53;8.40;99.90
40816;DHT22;26535;48.788;9.214;2024-03-23T15:11:20;9.00;99.90
40816;DHT22;26535;48.788;9.214;2024-03-23T15:13:58;10.80;99.90
40816;DHT22;26535;48.788;9.214;2024-03-23T15:16:24;10.80;98.80
40816;DHT22;26535;48.788;9.214;2024-03-23T15:18:58;11.70;93.50
40816;DHT22;26535;48.788;9.214;2024-03-23T15:21:28;13.10;91.60
40816;DHT22;26535;48.788;9.214;2024-03-23T15:23:54;14.50;82.60
40816;DHT22;26535;48.788;9.214;2024-03-23T15:26:19;15.00;81.00
40816;DHT22;26535;48.788;9.214;2024-03-23T15:28:49;16.20;76.40
40816;DHT22;26535;48.788;9.214;2024-03-23T15:31:29;16.80;72.90
40816;DHT22;26535;48.788;9.214;2024-03-23T15:34:26;17.70;73.30
40816;DHT22;26535;48.788;9.214;2024-03-23T15:37:10;19.20;66.00
40816;DHT22;26535;48.788;9.214;2024-03-23T15:39:44;20.30;63.80
40816;DHT22;26535;48.788;9.214;2024-03-23T15:42:36;20.40;61.20
40816;DHT22;26535;48.788;9.214;2024-03-23T15:45:23;19.50;61.30
40816;DHT22;26535;48.788;9.214;2024-03-23T15:47:48;19.30;61.60
40816;DHT22;26535;48.788;9.214;2024-03-23T15:50:15;19.00;61.10
40816;DHT22;26535;48.788;9.214;2024-03-23T15:52:54;18.80;60.80
40816;DHT22;26535;48.788;9.214;2024-03-23T15:55:23;19.70;59.30
40816;DHT22;26535;48.788;9.214;2024-03-23T16:00:59;19.30;58.20
40816;DHT22;26535;48.788;9.214;2024-03-23T16:03:26;18.60;59.10
40816;DHT22;26535;48.788;9.214;2024-03-23T16:06:08;18.10;60.10
40816;DHT22;26535;48.788;9.214;2024-03-23T16:08:34;17.20;60.80
40816;DHT22;26535;48.788;9.214;2024-03-23T16:11:09;16.90;62.40
40816;DHT22;26535;48.788;9.214;2024-03-23T16:13:38;17.20;62.00
40816;DHT22;26535;48.788;9.214;2024-03-23T16:16:06;17.60;61.60
40816;DHT22;26535;48.788;9.214;2024-03-23T16:18:59;17.30;63.00
40816;DHT22;26535;48.788;9.214;2024-03-23T16:21:25;16.70;63.60
40816;DHT22;26535;48.788;9.214;2024-03-23T16:23:53;15.80;65.60
40816;DHT22;26535;48.788;9.214;2024-03-23T16:26:21;14.60;67.60
40816;DHT22;26535;48.788;9.214;2024-03-23T16:28:47;13.20;71.40
40816;DHT22;26535;48.788;9.214;2024-03-23T16:31:14;12.20;72.60
40816;DHT22;26535;48.788;9.214;2024-03-23T16:33:50;11.10;75.60
40816;DHT22;26535;48.788;9.214;2024-03-23T16:36:17;10.50;78.00
40816;DHT22;26535;48.788;9.214;2024-03-23T16:41:30;9.60;80.20
40816;DHT22;26535;48.788;9.214;2024-03-23T16:44:33;9.40;82.00
40816;DHT22;26535;48.788;9.214;2024-03-23T16:46:58;9.20;83.20
40816;DHT22;26535;48.788;9.214;2024-03-23T16:49:25;9.00;84.10
40816;DHT22;26535;48.788;9.214;2024-03-23T16:55:00;8.70;92.80
40816;DHT22;26535;48.788;9.214;2024-03-23T16:57:30;7.70;99.70
40816;DHT22;26535;48.788;9.214;2024-03-23T17:00:48;7.30;99.90
40816;DHT22;26535;48.788;9.214;2024-03-23T17:03:14;7.00;99.90
40816;DHT22;26535;48.788;9.214;2024-03-23T17:05:40;6.80;99.90
40816;DHT22;26535;48.788;9.214;2024-03-23T17:08:25;6.60;99.90
40816;DHT22;26535;48.788;9.214;2024-03-23T17:18:35;6.40;99.90
40816;DHT22;26535;48.788;9.214;2024-03-23T17:24:18;6.50;99.90
40816;DHT22;26535;48.788;9.214;2024-03-23T17:27:20;6.50;99.90
40816;DHT22;26535;48.788;9.214;2024-03-23T17:33:00;6.50;99.90
40816;DHT22;26535;48.788;9.214;2024-03-23T17:43:12;6.80;99.90
40816;DHT22;26535;48.788;9.214;2024-03-23T17:49:10;6.60;99.90
40816;DHT22;26535;48.788;9.214;2024-03-23T17:52:00;5.50;99.90
40816;DHT22;26535;48.788;9.214;2024-03-23T17:55:44;4.70;99.90
40816;DHT22;26535;48.788;9.214;2024-03-23T17:58:12;4.10;99.90
40816;DHT22;26535;48.788;9.214;2024-03-23T18:00:38;3.90;99.90
40816;DHT22;26535;48.788;9.214;2024-03-23T18:03:13;3.70;99.90
40816;DHT22;26535;48.788;9.214;2024-03-23T18:06:01;3.60;99.90
40816;DHT22;26535;48.788;9.214;2024-03-23T18:08:33;3.60;99.90
40816;DHT22;26535;48.788;9.214;2024-03-23T18:18:03;3.70;99.90
40816;DHT22;26535;48.788;9.214;2024-03-23T18:20:21;3.60;99.90
40816;DHT22;26535;48.788;9.214;2024-03-23T18:22:50;3.60;99.90
40816;DHT22;26535;48.788;9.214;2024-03-23T18:25:16;3.60;99.90
40816;DHT22;26535;48.788;9.214;2024-03-23T18:27:53;3.60;99.90
40816;DHT22;26535;48.788;9.214;2024-03-23T18:34:25;3.50;99.90
40816;DHT22;26535;48.788;9.214;2024-03-23T18:36:51;3.40;99.90
40816;DHT22;26535;48.788;9.214;2024-03-23T18:39:20;3.50;99.90
40816;DHT22;26535;48.788;9.214;2024-03-23T18:41:48;3.50;99.90
40816;DHT22;26535;48.788;9.214;2024-03-23T18:44:14;3.50;99.90
40816;DHT22;26535;48.788;9.214;2024-03-23T18:46:40;3.60;99.90
40816;DHT22;26535;48.788;9.214;2024-03-23T18:49:06;3.60;99.90
40816;DHT22;26535;48.788;9.214;2024-03-23T18:51:31;3.60;99.90
40816;DHT22;26535;48.788;9.214;2024-03-23T18:53:57;3.70;99.90
40816;DHT22;26535;48.788;9.214;2024-03-23T18:56:27;3.60;99.90
40816;DHT22;26535;48.788;9.214;2024-03-23T18:58:53;3.60;99.90
40816;DHT22;26535;48.788;9.214;2024-03-23T19:01:19;3.60;99.90
40816;DHT22;26535;48.788;9.214;2024-03-23T19:03:48;3.60;99.90
40816;DHT22;26535;48.788;9.214;2024-03-23T19:06:13;3.70;99.90
40816;DHT22;26535;48.788;9.214;2024-03-23T19:08:42;3.60;99.90
40816;DHT22;26535;48.788;9.214;2024-03-23T19:11:08;3.70;99.90
40816;DHT22;26535;48.788;9.214;2024-03-23T19:13:34;3.70;99.90
40816;DHT22;26535;48.788;9.214;2024-03-23T19:16:01;3.70;99.90
40816;DHT22;26535;48.788;9.214;2024-03-23T19:18:27;3.70;99.90
40816;DHT22;26535;48.788;9.214;2024-03-23T19:21:00;3.70;99.90
40816;DHT22;26535;48.788;9.214;2024-03-23T19:23:33;3.70;99.90
40816;DHT22;26535;48.788;9.214;2024-03-23T19:30:07;3.60;99.90
40816;DHT22;26535;48.788;9.214;2024-03-23T19:33:04;3.50;99.90
40816;DHT22;26535;48.788;9.214;2024-03-23T19:35:30;3.50;99.90
40816;DHT22;26535;48.788;9.214;2024-03-23T19:38:24;3.40;99.90
40816;DHT22;26535;48.788;9.214;2024-03-23T19:40:57;3.40;99.90
40816;DHT22;26535;48.788;9.214;2024-03-23T19:43:23;3.40;99.90
40816;DHT22;26535;48.788;9.214;2024-03-23T19:46:11;3.30;99.90
40816;DHT22;26535;48.788;9.214;2024-03-23T19:48:42;3.30;99.90
40816;DHT22;26535;48.788;9.214;2024-03-23T19:55:16;3.20;99.90
40816;DHT22;26535;48.788;9.214;2024-03-23T19:57:49;3.20;99.90
40816;DHT22;26535;48.788;9.214;2024-03-23T20:00:20;3.20;99.90
40816;DHT22;26535;48.788;9.214;2024-03-23T20:06:09;3.20;99.90
40816;DHT22;26535;48.788;9.214;2024-03-23T20:08:35;3.10;99.90
40816;DHT22;26535;48.788;9.214;2024-03-23T20:11:01;3.10;99.90
40816;DHT22;26535;48.788;9.214;2024-03-23T20:13:27;3.10;99.90
40816;DHT22;26535;48.788;9.214;2024-03-23T20:15:56;3.00;99.90
40816;DHT22;26535;48.788;9.214;2024-03-23T20:18:25;3.00;99.90
40816;DHT22;26535;48.788;9.214;2024-03-23T20:20:53;3.00;99.90
40816;DHT22;26535;48.788;9.214;2024-03-23T20:23:19;3.00;99.90
40816;DHT22;26535;48.788;9.214;2024-03-23T20:25:55;3.10;99.90
40816;DHT22;26535;48.788;9.214;2024-03-23T20:28:21;3.00;99.90
40816;DHT22;26535;48.788;9.214;2024-03-23T20:30:47;3.00;99.90
40816;DHT22;26535;48.788;9.214;2024-03-23T20:33:14;3.10;99.90
40816;DHT22;26535;48.788;9.214;2024-03-23T20:35:47;3.10;99.90
40816;DHT22;26535;48.788;9.214;2024-03-23T20:38:25;3.20;99.90
40816;DHT22;26535;48.788;9.214;2024-03-23T20:40:52;3.20;99.90
40816;DHT22;26535;48.788;9.214;2024-03-23T20:43:18;3.20;99.90
40816;DHT22;26535;48.788;9.214;2024-03-23T20:46:04;3.20;99.90
40816;DHT22;26535;48.788;9.214;2024-03-23T20:48:30;3.20;99.90
40816;DHT22;26535;48.788;9.214;2024-03-23T20:51:36;3.20;99.90
40816;DHT22;26535;48.788;9.214;2024-03-23T20:53:58;3.30;99.90
40816;DHT22;26535;48.788;9.214;2024-03-23T20:56:24;3.20;99.90
40816;DHT22;26535;48.788;9.214;2024-03-23T20:58:50;3.20;99.90
40816;DHT22;26535;48.788;9.214;2024-03-23T21:01:18;3.20;99.90
40816;DHT22;26535;48.788;9.214;2024-03-23T21:04:00;3.10;99.90
40816;DHT22;26535;48.788;9.214;2024-03-23T21:06:26;3.10;99.90
40816;DHT22;26535;48.788;9.214;2024-03-23T21:08:51;3.10;99.90
40816;DHT22;26535;48.788;9.214;2024-03-23T21:11:17;3.20;99.90
40816;DHT22;26535;48.788;9.214;2024-03-23T21:13:43;3.10;99.90
40816;DHT22;26535;48.788;9.214;2024-03-23T21:16:08;3.10;99.90
40816;DHT22;26535;48.788;9.214;2024-03-23T21:18:34;3.10;99.90
40816;DHT22;26535;48.788;9.214;2024-03-23T21:21:02;3.10;99.90
40816;DHT22;26535;48.788;9.214;2024-03-23T21:23:31;3.10;99.90
40816;DHT22;26535;48.788;9.214;2024-03-23T21:26:00;3.10;99.90
40816;DHT22;26535;48.788;9.214;2024-03-23T21:28:26;3.20;99.90
40816;DHT22;26535;48.788;9.214;2024-03-23T21:30:52;3.20;99.90
40816;DHT22;26535;48.788;9.214;2024-03-23T21:33:19;3.20;99.90
40816;DHT22;26535;48.788;9.214;2024-03-23T21:35:56;3.30;99.90
40816;DHT22;26535;48.788;9.214;2024-03-23T21:38:22;3.30;99.90
40816;DHT22;26535;48.788;9.214;2024-03-23T21:40:55;3.30;99.90
40816;DHT22;26535;48.788;9.214;2024-03-23T21:43:21;3.30;99.90
40816;DHT22;26535;48.788;9.214;2024-03-23T21:45:57;3.40;99.90
40816;DHT22;26535;48.788;9.214;2024-03-23T21:48:32;3.40;99.90
40816;DHT22;26535;48.788;9.214;2024-03-23T21:53:27;3.40;99.90
40816;DHT22;26535;48.788;9.214;2024-03-23T21:55:54;3.50;99.90
40816;DHT22;26535;48.788;9.214;2024-03-23T21:58:25;3.50;99.90
40816;DHT22;26535;48.788;9.214;2024-03-23T22:00:54;3.50;99.90
40816;DHT22;26535;48.788;9.214;2024-03-23T22:03:21;3.50;99.90
40816;DHT22;26535;48.788;9.214;2024-03-23T22:05:53;3.50;99.90
40816;DHT22;26535;48.788;9.214;2024-03-23T22:08:18;3.50;99.90
40816;DHT22;26535;48.788;9.214;2024-03-23T22:10:44;3.40;99.90
40816;DHT22;26535;48.788;9.214;2024-03-23T22:13:11;3.40;99.90
40816;DHT22;26535;48.788;9.214;2024-03-23T22:15:36;3.40;99.90
40816;DHT22;26535;48.788;9.214;2024-03-23T22:18:02;3.40;99.90
40816;DHT22;26535;48.788;9.214;2024-03-23T22:20:34;3.40;99.90
40816;DHT22;26535;48.788;9.214;2024-03-23T22:23:04;3.40;99.90
40816;DHT22;26535;48.788;9.214;2024-03-23T22:25:29;3.50;99.90
40816;DHT22;26535;48.788;9.214;2024-03-23T22:27:55;3.50;99.90
40816;DHT22;26535;48.788;9.214;2024-03-23T22:30:21;3.50;99.90
40816;DHT22;26535;48.788;9.214;2024-03-23T22:32:47;3.50;99.90
40816;DHT22;26535;48.788;9.214;2024-03-23T22:35:13;3.50;99.90
40816;DHT22;26535;48.788;9.214;2024-03-23T22:37:43;3.50;99.90
40816;DHT22;26535;48.788;9.214;2024-03-23T22:40:10;3.50;99.90
40816;DHT22;26535;48.788;9.214;2024-03-23T22:42:36;3.40;99.90
40816;DHT22;26535;48.788;9.214;2024-03-23T22:45:02;3.40;99.90
40816;DHT22;26535;48.788;9.214;2024-03-23T22:47:30;3.40;99.90
40816;DHT22;26535;48.788;9.214;2024-03-23T22:49:57;3.40;99.90
40816;DHT22;26535;48.788;9.214;2024-03-23T22:52:23;3.40;99.90
40816;DHT22;26535;48.788;9.214;2024-03-23T22:54:48;3.30;99.90
40816;DHT22;26535;48.788;9.214;2024-03-23T22:57:14;3.40;99.90
40816;DHT22;26535;48.788;9.214;2024-03-23T22:59:40;3.40;99.90
40816;DHT22;26535;48.788;9.214;2024-03-23T23:02:25;3.40;99.90
40816;DHT22;26535;48.788;9.214;2024-03-23T23:04:51;3.40;99.90
40816;DHT22;26535;48.788;9.214;2024-03-23T23:07:17;3.60;99.90
40816;DHT22;26535;48.788;9.214;2024-03-23T23:09:42;3.50;99.90
40816;DHT22;26535;48.788;9.214;2024-03-23T23:12:08;3.50;99.90
40816;DHT22;26535;48.788;9.214;2024-03-23T23:14:36;3.60;99.90
40816;DHT22;26535;48.788;9.214;2024-03-23T23:17:07;3.80;99.90
40816;DHT22;26535;48.788;9.214;2024-03-23T23:19:33;3.70;99.90
40816;DHT22;26535;48.788;9.214;2024-03-23T23:22:05;3.70;99.90
40816;DHT22;26535;48.788;9.214;2024-03-23T23:24:35;3.60;99.90
40816;DHT22;26535;48.788;9.214;2024-03-23T23:27:01;3.70;99.90
40816;DHT22;26535;48.788;9.214;2024-03-23T23:29:27;3.60;99.90
40816;DHT22;26535;48.788;9.214;2024-03-23T23:32:06;3.60;99.90
40816;DHT22;26535;48.788;9.214;2024-03-23T23:34:59;3.60;99.90
40816;DHT22;26535;48.788;9.214;2024-03-23T23:37:26;3.70;99.90
40816;DHT22;26535;48.788;9.214;2024-03-23T23:39:52;3.60;99.90
40816;DHT22;26535;48.788;9.214;2024-03-23T23:42:18;3.60;99.90
40816;DHT22;26535;48.788;9.214;2024-03-23T23:44:44;3.60;99.90
40816;DHT22;26535;48.788;9.214;2024-03-23T23:47:10;3.60;99.90
40816;DHT22;26535;48.788;9.214;2024-03-23T23:49:35;3.70;99.90
40816;DHT22;26535;48.788;9.214;2024-03-23T23:52:01;3.70;99.90
40816;DHT22;26535;48.788;9.214;2024-03-23T23:54:27;3.70;99.90
40816;DHT22;26535;48.788;9.214;2024-03-23T23:56:53;3.70;99.90
40816;DHT22;26535;48.788;9.214;2024-03-23T23:59:18;3.70;99.90
